sensor_id;sensor_type;location;lat;lon;timestamp;temperature;humidity
49253;DHT22;35103;47.952;-1.502;2022-08-19T00:00:15;21.00;65.20
49253;DHT22;35103;47.952;-1.502;2022-08-19T00:02:41;20.90;65.00
49253;DHT22;35103;47.952;-1.502;2022-08-19T00:05:09;20.80;65.60
49253;DHT22;35103;47.952;-1.502;2022-08-19T00:07:35;20.70;65.70
49253;DHT22;35103;47.952;-1.502;2022-08-19T00:10:01;20.60;65.40
49253;DHT22;35103;47.952;-1.502;2022-08-19T00:12:27;20.50;65.30
49253;DHT22;35103;47.952;-1.502;2022-08-19T00:14:53;20.40;65.30
49253;DHT22;35103;47.952;-1.502;2022-08-19T00:17:19;20.40;65.30
49253;DHT22;35103;47.952;-1.502;2022-08-19T00:19:44;20.30;65.70
49253;DHT22;35103;47.952;-1.502;2022-08-19T00:22:10;20.30;65.70
49253;DHT22;35103;47.952;-1.502;2022-08-19T00:24:36;20.30;66.00
49253;DHT22;35103;47.952;-1.502;2022-08-19T00:27:01;20.30;65.60
49253;DHT22;35103;47.952;-1.502;2022-08-19T00:29:28;20.20;66.10
49253;DHT22;35103;47.952;-1.502;2022-08-19T00:31:54;20.10;66.30
49253;DHT22;35103;47.952;-1.502;2022-08-19T00:34:21;20.10;66.40
49253;DHT22;35103;47.952;-1.502;2022-08-19T00:36:47;20.10;66.10
49253;DHT22;35103;47.952;-1.502;2022-08-19T00:39:14;20.10;66.60
49253;DHT22;35103;47.952;-1.502;2022-08-19T00:41:43;20.10;66.70
49253;DHT22;35103;47.952;-1.502;2022-08-19T00:44:13;20.10;66.40
49253;DHT22;35103;47.952;-1.502;2022-08-19T00:46:44;20.10;66.70
49253;DHT22;35103;47.952;-1.502;2022-08-19T00:49:18;20.00;67.00
49253;DHT22;35103;47.952;-1.502;2022-08-19T00:51:47;20.10;66.90
49253;DHT22;35103;47.952;-1.502;2022-08-19T00:54:13;20.00;67.30
49253;DHT22;35103;47.952;-1.502;2022-08-19T00:56:40;20.00;67.40
49253;DHT22;35103;47.952;-1.502;2022-08-19T00:59:06;20.00;67.20
49253;DHT22;35103;47.952;-1.502;2022-08-19T01:01:32;20.10;67.30
49253;DHT22;35103;47.952;-1.502;2022-08-19T01:03:58;20.10;67.80
49253;DHT22;35103;47.952;-1.502;2022-08-19T01:06:24;20.10;68.50
49253;DHT22;35103;47.952;-1.502;2022-08-19T01:08:50;20.10;68.50
49253;DHT22;35103;47.952;-1.502;2022-08-19T01:11:16;20.00;68.90
49253;DHT22;35103;47.952;-1.502;2022-08-19T01:13:42;20.10;68.90
49253;DHT22;35103;47.952;-1.502;2022-08-19T01:16:10;20.10;69.00
49253;DHT22;35103;47.952;-1.502;2022-08-19T01:18:39;20.10;69.00
49253;DHT22;35103;47.952;-1.502;2022-08-19T01:21:28;20.20;69.20
49253;DHT22;35103;47.952;-1.502;2022-08-19T01:23:55;20.20;69.40
49253;DHT22;35103;47.952;-1.502;2022-08-19T01:26:23;20.30;69.70
49253;DHT22;35103;47.952;-1.502;2022-08-19T01:28:51;20.30;70.00
49253;DHT22;35103;47.952;-1.502;2022-08-19T01:31:23;20.30;70.30
49253;DHT22;35103;47.952;-1.502;2022-08-19T01:33:51;20.30;70.00
49253;DHT22;35103;47.952;-1.502;2022-08-19T01:36:36;20.30;70.40
49253;DHT22;35103;47.952;-1.502;2022-08-19T01:39:05;20.30;70.30
49253;DHT22;35103;47.952;-1.502;2022-08-19T01:41:31;20.30;70.10
49253;DHT22;35103;47.952;-1.502;2022-08-19T01:43:56;20.30;71.10
49253;DHT22;35103;47.952;-1.502;2022-08-19T01:46:22;20.30;71.80
49253;DHT22;35103;47.952;-1.502;2022-08-19T01:48:48;20.30;71.20
49253;DHT22;35103;47.952;-1.502;2022-08-19T01:51:14;20.30;71.50
49253;DHT22;35103;47.952;-1.502;2022-08-19T01:53:40;20.30;72.10
49253;DHT22;35103;47.952;-1.502;2022-08-19T01:56:06;20.30;71.80
49253;DHT22;35103;47.952;-1.502;2022-08-19T01:58:36;20.30;72.60
49253;DHT22;35103;47.952;-1.502;2022-08-19T02:01:04;20.30;72.80
49253;DHT22;35103;47.952;-1.502;2022-08-19T02:03:30;20.20;73.50
49253;DHT22;35103;47.952;-1.502;2022-08-19T02:05:58;20.20;73.30
49253;DHT22;35103;47.952;-1.502;2022-08-19T02:08:24;20.20;73.30
49253;DHT22;35103;47.952;-1.502;2022-08-19T02:10:49;20.20;74.10
49253;DHT22;35103;47.952;-1.502;2022-08-19T02:13:16;20.10;73.90
49253;DHT22;35103;47.952;-1.502;2022-08-19T02:15:41;20.10;74.50
49253;DHT22;35103;47.952;-1.502;2022-08-19T02:18:07;20.20;74.10
49253;DHT22;35103;47.952;-1.502;2022-08-19T02:20:32;20.20;74.10
49253;DHT22;35103;47.952;-1.502;2022-08-19T02:22:58;20.10;74.80
49253;DHT22;35103;47.952;-1.502;2022-08-19T02:25:24;20.10;74.70
49253;DHT22;35103;47.952;-1.502;2022-08-19T02:27:49;20.10;74.50
49253;DHT22;35103;47.952;-1.502;2022-08-19T02:30:16;20.10;74.70
49253;DHT22;35103;47.952;-1.502;2022-08-19T02:32:42;20.20;75.10
49253;DHT22;35103;47.952;-1.502;2022-08-19T02:35:08;20.20;75.20
49253;DHT22;35103;47.952;-1.502;2022-08-19T02:37:34;20.20;75.00
49253;DHT22;35103;47.952;-1.502;2022-08-19T02:40:00;20.20;74.50
49253;DHT22;35103;47.952;-1.502;2022-08-19T02:42:26;20.20;74.80
49253;DHT22;35103;47.952;-1.502;2022-08-19T02:44:51;20.20;75.20
49253;DHT22;35103;47.952;-1.502;2022-08-19T02:47:17;20.20;75.60
49253;DHT22;35103;47.952;-1.502;2022-08-19T02:49:43;20.10;76.30
49253;DHT22;35103;47.952;-1.502;2022-08-19T02:52:09;20.10;76.10
49253;DHT22;35103;47.952;-1.502;2022-08-19T02:54:34;20.10;75.70
49253;DHT22;35103;47.952;-1.502;2022-08-19T02:57:00;20.10;75.60
49253;DHT22;35103;47.952;-1.502;2022-08-19T02:59:25;20.10;76.10
49253;DHT22;35103;47.952;-1.502;2022-08-19T03:01:51;20.10;75.90
49253;DHT22;35103;47.952;-1.502;2022-08-19T03:04:16;20.10;76.00
49253;DHT22;35103;47.952;-1.502;2022-08-19T03:06:45;20.10;75.60
49253;DHT22;35103;47.952;-1.502;2022-08-19T03:09:11;20.10;76.00
49253;DHT22;35103;47.952;-1.502;2022-08-19T03:11:38;20.10;76.70
49253;DHT22;35103;47.952;-1.502;2022-08-19T03:14:05;20.10;76.70
49253;DHT22;35103;47.952;-1.502;2022-08-19T03:16:33;20.10;76.50
49253;DHT22;35103;47.952;-1.502;2022-08-19T03:18:58;20.10;76.70
49253;DHT22;35103;47.952;-1.502;2022-08-19T03:21:26;20.10;77.00
49253;DHT22;35103;47.952;-1.502;2022-08-19T03:23:56;20.10;76.60
49253;DHT22;35103;47.952;-1.502;2022-08-19T03:26:21;20.10;76.60
49253;DHT22;35103;47.952;-1.502;2022-08-19T03:28:47;20.10;76.50
49253;DHT22;35103;47.952;-1.502;2022-08-19T03:31:13;20.10;76.60
49253;DHT22;35103;47.952;-1.502;2022-08-19T03:33:40;20.10;76.80
49253;DHT22;35103;47.952;-1.502;2022-08-19T03:38:38;20.20;76.90
49253;DHT22;35103;47.952;-1.502;2022-08-19T03:41:09;20.10;76.50
49253;DHT22;35103;47.952;-1.502;2022-08-19T03:43:37;20.10;77.00
49253;DHT22;35103;47.952;-1.502;2022-08-19T03:46:10;20.10;77.00
49253;DHT22;35103;47.952;-1.502;2022-08-19T03:48:36;20.10;76.90
49253;DHT22;35103;47.952;-1.502;2022-08-19T03:51:03;20.20;76.50
49253;DHT22;35103;47.952;-1.502;2022-08-19T03:53:29;20.20;77.60
49253;DHT22;35103;47.952;-1.502;2022-08-19T03:55:56;20.20;77.40
49253;DHT22;35103;47.952;-1.502;2022-08-19T03:58:22;20.20;77.70
49253;DHT22;35103;47.952;-1.502;2022-08-19T04:00:48;20.10;77.70
49253;DHT22;35103;47.952;-1.502;2022-08-19T04:03:14;20.10;77.50
49253;DHT22;35103;47.952;-1.502;2022-08-19T04:05:40;20.10;77.60
49253;DHT22;35103;47.952;-1.502;2022-08-19T04:08:05;20.20;78.00
49253;DHT22;35103;47.952;-1.502;2022-08-19T04:10:37;20.10;78.60
49253;DHT22;35103;47.952;-1.502;2022-08-19T04:13:04;20.10;77.90
49253;DHT22;35103;47.952;-1.502;2022-08-19T04:15:30;20.10;78.40
49253;DHT22;35103;47.952;-1.502;2022-08-19T04:17:55;20.00;78.50
49253;DHT22;35103;47.952;-1.502;2022-08-19T04:20:21;20.00;78.90
49253;DHT22;35103;47.952;-1.502;2022-08-19T04:22:46;20.00;78.80
49253;DHT22;35103;47.952;-1.502;2022-08-19T04:25:12;20.00;78.80
49253;DHT22;35103;47.952;-1.502;2022-08-19T04:27:37;20.00;78.80
49253;DHT22;35103;47.952;-1.502;2022-08-19T04:30:03;20.00;79.10
49253;DHT22;35103;47.952;-1.502;2022-08-19T04:32:29;20.00;78.50
49253;DHT22;35103;47.952;-1.502;2022-08-19T04:34:55;20.00;78.60
49253;DHT22;35103;47.952;-1.502;2022-08-19T04:37:20;20.10;78.90
49253;DHT22;35103;47.952;-1.502;2022-08-19T04:39:46;20.10;79.50
49253;DHT22;35103;47.952;-1.502;2022-08-19T04:42:12;20.00;78.90
49253;DHT22;35103;47.952;-1.502;2022-08-19T04:44:38;20.00;79.50
49253;DHT22;35103;47.952;-1.502;2022-08-19T04:47:04;20.00;79.20
49253;DHT22;35103;47.952;-1.502;2022-08-19T04:49:29;20.00;79.30
49253;DHT22;35103;47.952;-1.502;2022-08-19T04:51:55;20.10;79.60
49253;DHT22;35103;47.952;-1.502;2022-08-19T04:54:23;20.00;79.30
49253;DHT22;35103;47.952;-1.502;2022-08-19T04:56:49;20.00;79.10
49253;DHT22;35103;47.952;-1.502;2022-08-19T04:59:16;20.10;79.30
49253;DHT22;35103;47.952;-1.502;2022-08-19T05:01:43;20.10;79.40
49253;DHT22;35103;47.952;-1.502;2022-08-19T05:04:09;20.10;79.30
49253;DHT22;35103;47.952;-1.502;2022-08-19T05:06:35;20.10;79.90
49253;DHT22;35103;47.952;-1.502;2022-08-19T05:09:05;20.10;79.70
49253;DHT22;35103;47.952;-1.502;2022-08-19T05:11:35;20.10;79.40
49253;DHT22;35103;47.952;-1.502;2022-08-19T05:14:01;20.10;79.60
49253;DHT22;35103;47.952;-1.502;2022-08-19T05:16:27;20.10;79.50
49253;DHT22;35103;47.952;-1.502;2022-08-19T05:18:54;20.10;79.90
49253;DHT22;35103;47.952;-1.502;2022-08-19T05:21:20;20.10;79.90
49253;DHT22;35103;47.952;-1.502;2022-08-19T05:23:46;20.10;80.30
49253;DHT22;35103;47.952;-1.502;2022-08-19T05:26:11;20.10;80.00
49253;DHT22;35103;47.952;-1.502;2022-08-19T05:28:37;20.10;80.20
49253;DHT22;35103;47.952;-1.502;2022-08-19T05:31:02;20.10;80.10
49253;DHT22;35103;47.952;-1.502;2022-08-19T05:33:28;20.10;80.40
49253;DHT22;35103;47.952;-1.502;2022-08-19T05:35:55;20.10;80.30
49253;DHT22;35103;47.952;-1.502;2022-08-19T05:38:20;20.10;80.80
49253;DHT22;35103;47.952;-1.502;2022-08-19T05:40:46;20.10;80.30
49253;DHT22;35103;47.952;-1.502;2022-08-19T05:43:11;20.10;80.30
49253;DHT22;35103;47.952;-1.502;2022-08-19T05:45:41;20.00;80.70
49253;DHT22;35103;47.952;-1.502;2022-08-19T05:48:08;20.10;80.40
49253;DHT22;35103;47.952;-1.502;2022-08-19T05:50:35;20.10;81.10
49253;DHT22;35103;47.952;-1.502;2022-08-19T05:53:01;20.00;81.00
49253;DHT22;35103;47.952;-1.502;2022-08-19T05:55:26;20.10;80.80
49253;DHT22;35103;47.952;-1.502;2022-08-19T05:57:52;20.10;81.30
49253;DHT22;35103;47.952;-1.502;2022-08-19T06:00:17;20.10;81.30
49253;DHT22;35103;47.952;-1.502;2022-08-19T06:02:43;20.10;81.30
49253;DHT22;35103;47.952;-1.502;2022-08-19T06:05:09;20.10;81.50
49253;DHT22;35103;47.952;-1.502;2022-08-19T06:07:36;20.10;81.10
49253;DHT22;35103;47.952;-1.502;2022-08-19T06:10:04;20.10;81.10
49253;DHT22;35103;47.952;-1.502;2022-08-19T06:12:31;20.10;81.40
49253;DHT22;35103;47.952;-1.502;2022-08-19T06:14:59;20.10;81.70
49253;DHT22;35103;47.952;-1.502;2022-08-19T06:17:25;20.00;81.80
49253;DHT22;35103;47.952;-1.502;2022-08-19T06:19:51;20.00;81.50
49253;DHT22;35103;47.952;-1.502;2022-08-19T06:22:17;20.00;81.80
49253;DHT22;35103;47.952;-1.502;2022-08-19T06:24:42;20.00;81.90
49253;DHT22;35103;47.952;-1.502;2022-08-19T06:27:08;20.00;81.70
49253;DHT22;35103;47.952;-1.502;2022-08-19T06:29:34;20.00;81.70
49253;DHT22;35103;47.952;-1.502;2022-08-19T06:32:01;19.90;82.10
49253;DHT22;35103;47.952;-1.502;2022-08-19T06:34:28;19.90;82.10
49253;DHT22;35103;47.952;-1.502;2022-08-19T06:36:56;19.90;82.20
49253;DHT22;35103;47.952;-1.502;2022-08-19T06:39:25;19.90;82.20
49253;DHT22;35103;47.952;-1.502;2022-08-19T06:41:55;19.90;81.90
49253;DHT22;35103;47.952;-1.502;2022-08-19T06:44:23;19.90;82.00
49253;DHT22;35103;47.952;-1.502;2022-08-19T06:46:49;20.00;82.00
49253;DHT22;35103;47.952;-1.502;2022-08-19T06:49:16;20.00;82.30
49253;DHT22;35103;47.952;-1.502;2022-08-19T06:51:43;19.90;82.10
49253;DHT22;35103;47.952;-1.502;2022-08-19T06:54:10;20.00;82.60
49253;DHT22;35103;47.952;-1.502;2022-08-19T06:56:36;20.20;82.10
49253;DHT22;35103;47.952;-1.502;2022-08-19T06:59:07;20.20;81.80
49253;DHT22;35103;47.952;-1.502;2022-08-19T07:01:42;20.20;81.80
49253;DHT22;35103;47.952;-1.502;2022-08-19T07:04:08;20.30;81.80
49253;DHT22;35103;47.952;-1.502;2022-08-19T07:06:36;20.30;81.80
49253;DHT22;35103;47.952;-1.502;2022-08-19T07:09:04;20.30;81.80
49253;DHT22;35103;47.952;-1.502;2022-08-19T07:11:30;20.30;81.80
49253;DHT22;35103;47.952;-1.502;2022-08-19T07:13:56;20.30;81.90
49253;DHT22;35103;47.952;-1.502;2022-08-19T07:16:21;20.30;81.80
49253;DHT22;35103;47.952;-1.502;2022-08-19T07:18:48;20.30;81.70
49253;DHT22;35103;47.952;-1.502;2022-08-19T07:21:26;20.30;81.90
49253;DHT22;35103;47.952;-1.502;2022-08-19T07:23:51;20.40;81.90
49253;DHT22;35103;47.952;-1.502;2022-08-19T07:26:29;20.40;81.80
49253;DHT22;35103;47.952;-1.502;2022-08-19T07:28:56;20.50;81.80
49253;DHT22;35103;47.952;-1.502;2022-08-19T07:31:24;20.60;81.60
49253;DHT22;35103;47.952;-1.502;2022-08-19T07:33:51;20.60;81.60
49253;DHT22;35103;47.952;-1.502;2022-08-19T07:36:21;20.60;81.80
49253;DHT22;35103;47.952;-1.502;2022-08-19T07:38:48;20.60;81.70
49253;DHT22;35103;47.952;-1.502;2022-08-19T07:41:20;20.60;81.70
49253;DHT22;35103;47.952;-1.502;2022-08-19T07:43:46;20.60;81.80
49253;DHT22;35103;47.952;-1.502;2022-08-19T07:46:13;20.70;82.00
49253;DHT22;35103;47.952;-1.502;2022-08-19T07:48:39;20.80;82.10
49253;DHT22;35103;47.952;-1.502;2022-08-19T07:51:06;20.80;81.60
49253;DHT22;35103;47.952;-1.502;2022-08-19T07:53:32;20.90;81.90
49253;DHT22;35103;47.952;-1.502;2022-08-19T07:55:59;20.90;81.60
49253;DHT22;35103;47.952;-1.502;2022-08-19T07:58:24;20.90;81.40
49253;DHT22;35103;47.952;-1.502;2022-08-19T08:00:50;20.90;81.40
49253;DHT22;35103;47.952;-1.502;2022-08-19T08:03:18;20.90;81.40
49253;DHT22;35103;47.952;-1.502;2022-08-19T08:05:44;20.90;81.60
49253;DHT22;35103;47.952;-1.502;2022-08-19T08:08:11;20.90;81.60
49253;DHT22;35103;47.952;-1.502;2022-08-19T08:10:37;21.00;81.70
49253;DHT22;35103;47.952;-1.502;2022-08-19T08:13:02;20.90;81.60
49253;DHT22;35103;47.952;-1.502;2022-08-19T08:15:28;20.90;81.60
49253;DHT22;35103;47.952;-1.502;2022-08-19T08:17:54;21.00;81.80
49253;DHT22;35103;47.952;-1.502;2022-08-19T08:20:19;21.00;81.90
49253;DHT22;35103;47.952;-1.502;2022-08-19T08:22:46;21.10;81.80
49253;DHT22;35103;47.952;-1.502;2022-08-19T08:25:16;21.20;81.90
49253;DHT22;35103;47.952;-1.502;2022-08-19T08:27:43;21.30;81.80
49253;DHT22;35103;47.952;-1.502;2022-08-19T08:30:22;21.30;81.20
49253;DHT22;35103;47.952;-1.502;2022-08-19T08:32:49;21.30;81.60
49253;DHT22;35103;47.952;-1.502;2022-08-19T08:35:17;21.30;81.20
49253;DHT22;35103;47.952;-1.502;2022-08-19T08:37:44;21.30;81.10
49253;DHT22;35103;47.952;-1.502;2022-08-19T08:40:27;21.30;81.50
49253;DHT22;35103;47.952;-1.502;2022-08-19T08:46:44;21.50;81.30
49253;DHT22;35103;47.952;-1.502;2022-08-19T08:49:24;21.60;80.90
49253;DHT22;35103;47.952;-1.502;2022-08-19T08:52:27;21.70;81.30
49253;DHT22;35103;47.952;-1.502;2022-08-19T08:55:16;21.80;80.40
49253;DHT22;35103;47.952;-1.502;2022-08-19T09:00:24;22.10;80.70
49253;DHT22;35103;47.952;-1.502;2022-08-19T09:02:51;22.30;79.60
49253;DHT22;35103;47.952;-1.502;2022-08-19T09:05:18;22.40;79.30
49253;DHT22;35103;47.952;-1.502;2022-08-19T09:08:07;22.50;79.40
49253;DHT22;35103;47.952;-1.502;2022-08-19T09:10:55;22.50;78.70
49253;DHT22;35103;47.952;-1.502;2022-08-19T09:15:58;22.40;78.50
49253;DHT22;35103;47.952;-1.502;2022-08-19T09:18:26;22.30;78.20
49253;DHT22;35103;47.952;-1.502;2022-08-19T09:21:00;22.30;78.60
49253;DHT22;35103;47.952;-1.502;2022-08-19T09:23:26;22.30;78.70
49253;DHT22;35103;47.952;-1.502;2022-08-19T09:25:55;22.30;78.40
49253;DHT22;35103;47.952;-1.502;2022-08-19T09:28:22;22.30;78.40
49253;DHT22;35103;47.952;-1.502;2022-08-19T09:30:47;22.30;78.40
49253;DHT22;35103;47.952;-1.502;2022-08-19T09:33:14;22.20;78.60
49253;DHT22;35103;47.952;-1.502;2022-08-19T09:35:40;22.30;78.60
49253;DHT22;35103;47.952;-1.502;2022-08-19T09:38:13;22.40;78.30
49253;DHT22;35103;47.952;-1.502;2022-08-19T09:40:39;22.50;78.30
49253;DHT22;35103;47.952;-1.502;2022-08-19T09:43:05;22.50;77.50
49253;DHT22;35103;47.952;-1.502;2022-08-19T09:45:35;22.60;78.40
49253;DHT22;35103;47.952;-1.502;2022-08-19T09:48:04;22.70;77.40
49253;DHT22;35103;47.952;-1.502;2022-08-19T09:50:30;22.80;78.20
49253;DHT22;35103;47.952;-1.502;2022-08-19T09:52:56;22.90;78.10
49253;DHT22;35103;47.952;-1.502;2022-08-19T09:55:22;23.10;77.70
49253;DHT22;35103;47.952;-1.502;2022-08-19T09:57:49;23.00;76.80
49253;DHT22;35103;47.952;-1.502;2022-08-19T10:00:14;23.20;77.20
49253;DHT22;35103;47.952;-1.502;2022-08-19T10:02:40;23.20;76.40
49253;DHT22;35103;47.952;-1.502;2022-08-19T10:05:06;23.20;76.40
49253;DHT22;35103;47.952;-1.502;2022-08-19T10:07:33;23.30;76.70
49253;DHT22;35103;47.952;-1.502;2022-08-19T10:10:01;23.30;75.80
49253;DHT22;35103;47.952;-1.502;2022-08-19T10:12:27;23.20;75.60
49253;DHT22;35103;47.952;-1.502;2022-08-19T10:14:54;23.10;75.90
49253;DHT22;35103;47.952;-1.502;2022-08-19T10:17:22;23.10;75.50
49253;DHT22;35103;47.952;-1.502;2022-08-19T10:19:48;23.00;76.20
49253;DHT22;35103;47.952;-1.502;2022-08-19T10:22:18;23.00;76.20
49253;DHT22;35103;47.952;-1.502;2022-08-19T10:24:48;22.90;76.10
49253;DHT22;35103;47.952;-1.502;2022-08-19T10:27:16;22.90;75.70
49253;DHT22;35103;47.952;-1.502;2022-08-19T10:29:44;23.00;75.50
49253;DHT22;35103;47.952;-1.502;2022-08-19T10:32:10;22.90;75.60
49253;DHT22;35103;47.952;-1.502;2022-08-19T10:34:39;23.00;75.60
49253;DHT22;35103;47.952;-1.502;2022-08-19T10:37:05;23.00;75.00
49253;DHT22;35103;47.952;-1.502;2022-08-19T10:39:38;23.00;75.00
49253;DHT22;35103;47.952;-1.502;2022-08-19T10:42:06;23.10;75.30
49253;DHT22;35103;47.952;-1.502;2022-08-19T10:44:36;23.30;75.70
49253;DHT22;35103;47.952;-1.502;2022-08-19T10:47:03;23.50;75.50
49253;DHT22;35103;47.952;-1.502;2022-08-19T10:49:29;23.70;74.80
49253;DHT22;35103;47.952;-1.502;2022-08-19T10:51:56;23.80;74.00
49253;DHT22;35103;47.952;-1.502;2022-08-19T10:54:22;23.90;74.70
49253;DHT22;35103;47.952;-1.502;2022-08-19T10:56:49;23.90;73.50
49253;DHT22;35103;47.952;-1.502;2022-08-19T10:59:16;23.90;72.90
49253;DHT22;35103;47.952;-1.502;2022-08-19T11:01:45;23.70;72.30
49253;DHT22;35103;47.952;-1.502;2022-08-19T11:04:14;23.40;73.20
49253;DHT22;35103;47.952;-1.502;2022-08-19T11:06:41;23.40;73.70
49253;DHT22;35103;47.952;-1.502;2022-08-19T11:09:09;23.40;73.90
49253;DHT22;35103;47.952;-1.502;2022-08-19T11:11:35;23.30;73.80
49253;DHT22;35103;47.952;-1.502;2022-08-19T11:14:04;23.40;74.10
49253;DHT22;35103;47.952;-1.502;2022-08-19T11:16:30;23.40;74.20
49253;DHT22;35103;47.952;-1.502;2022-08-19T11:18:59;23.80;74.20
49253;DHT22;35103;47.952;-1.502;2022-08-19T11:21:26;23.90;72.50
49253;DHT22;35103;47.952;-1.502;2022-08-19T11:23:56;23.90;71.00
49253;DHT22;35103;47.952;-1.502;2022-08-19T11:26:23;23.80;72.20
49253;DHT22;35103;47.952;-1.502;2022-08-19T11:28:49;23.70;73.30
49253;DHT22;35103;47.952;-1.502;2022-08-19T11:31:18;23.70;73.60
49253;DHT22;35103;47.952;-1.502;2022-08-19T11:33:44;23.60;73.30
49253;DHT22;35103;47.952;-1.502;2022-08-19T11:36:10;23.50;73.80
49253;DHT22;35103;47.952;-1.502;2022-08-19T11:38:36;23.50;74.30
49253;DHT22;35103;47.952;-1.502;2022-08-19T11:41:05;23.50;74.70
49253;DHT22;35103;47.952;-1.502;2022-08-19T11:43:37;23.60;74.10
49253;DHT22;35103;47.952;-1.502;2022-08-19T11:46:07;23.70;74.10
49253;DHT22;35103;47.952;-1.502;2022-08-19T11:48:33;23.60;74.00
49253;DHT22;35103;47.952;-1.502;2022-08-19T11:51:02;23.50;74.80
49253;DHT22;35103;47.952;-1.502;2022-08-19T11:53:29;23.60;74.80
49253;DHT22;35103;47.952;-1.502;2022-08-19T11:55:55;23.60;75.40
49253;DHT22;35103;47.952;-1.502;2022-08-19T11:58:21;23.70;75.00
49253;DHT22;35103;47.952;-1.502;2022-08-19T12:00:47;23.60;74.00
49253;DHT22;35103;47.952;-1.502;2022-08-19T12:03:13;23.40;73.80
49253;DHT22;35103;47.952;-1.502;2022-08-19T12:05:39;23.20;73.60
49253;DHT22;35103;47.952;-1.502;2022-08-19T12:08:06;23.10;74.10
49253;DHT22;35103;47.952;-1.502;2022-08-19T12:10:32;23.10;74.20
49253;DHT22;35103;47.952;-1.502;2022-08-19T12:12:58;23.10;74.70
49253;DHT22;35103;47.952;-1.502;2022-08-19T12:15:24;23.10;74.80
49253;DHT22;35103;47.952;-1.502;2022-08-19T12:17:50;23.10;74.90
49253;DHT22;35103;47.952;-1.502;2022-08-19T12:20:15;23.10;74.40
49253;DHT22;35103;47.952;-1.502;2022-08-19T12:22:41;23.10;74.70
49253;DHT22;35103;47.952;-1.502;2022-08-19T12:25:08;23.10;74.90
49253;DHT22;35103;47.952;-1.502;2022-08-19T12:27:34;23.20;74.30
49253;DHT22;35103;47.952;-1.502;2022-08-19T12:29:59;23.10;74.10
49253;DHT22;35103;47.952;-1.502;2022-08-19T12:32:25;23.20;75.00
49253;DHT22;35103;47.952;-1.502;2022-08-19T12:34:51;23.20;75.10
49253;DHT22;35103;47.952;-1.502;2022-08-19T12:37:16;23.20;75.60
49253;DHT22;35103;47.952;-1.502;2022-08-19T12:39:43;23.30;75.60
49253;DHT22;35103;47.952;-1.502;2022-08-19T12:42:10;23.30;75.50
49253;DHT22;35103;47.952;-1.502;2022-08-19T12:44:38;23.30;75.10
49253;DHT22;35103;47.952;-1.502;2022-08-19T12:47:04;23.30;75.50
49253;DHT22;35103;47.952;-1.502;2022-08-19T12:49:30;23.30;75.20
49253;DHT22;35103;47.952;-1.502;2022-08-19T12:51:55;23.10;75.20
49253;DHT22;35103;47.952;-1.502;2022-08-19T12:54:21;23.00;75.50
49253;DHT22;35103;47.952;-1.502;2022-08-19T12:56:46;23.00;75.90
49253;DHT22;35103;47.952;-1.502;2022-08-19T12:59:13;23.00;75.70
49253;DHT22;35103;47.952;-1.502;2022-08-19T13:01:38;23.00;75.60
49253;DHT22;35103;47.952;-1.502;2022-08-19T13:04:04;22.80;76.30
49253;DHT22;35103;47.952;-1.502;2022-08-19T13:06:29;22.60;76.90
49253;DHT22;35103;47.952;-1.502;2022-08-19T13:08:55;22.60;77.70
49253;DHT22;35103;47.952;-1.502;2022-08-19T13:11:21;22.40;78.20
49253;DHT22;35103;47.952;-1.502;2022-08-19T13:13:50;22.30;78.70
49253;DHT22;35103;47.952;-1.502;2022-08-19T13:16:16;22.20;79.10
49253;DHT22;35103;47.952;-1.502;2022-08-19T13:18:46;22.20;79.40
49253;DHT22;35103;47.952;-1.502;2022-08-19T13:21:12;22.20;79.50
49253;DHT22;35103;47.952;-1.502;2022-08-19T13:23:37;22.30;79.70
49253;DHT22;35103;47.952;-1.502;2022-08-19T13:26:05;22.30;79.80
49253;DHT22;35103;47.952;-1.502;2022-08-19T13:28:32;22.30;79.90
49253;DHT22;35103;47.952;-1.502;2022-08-19T13:30:58;22.30;80.10
49253;DHT22;35103;47.952;-1.502;2022-08-19T13:33:23;22.30;79.90
49253;DHT22;35103;47.952;-1.502;2022-08-19T13:35:57;22.40;79.70
49253;DHT22;35103;47.952;-1.502;2022-08-19T13:38:23;22.40;79.30
49253;DHT22;35103;47.952;-1.502;2022-08-19T13:40:51;22.40;79.60
49253;DHT22;35103;47.952;-1.502;2022-08-19T13:43:18;22.50;79.90
49253;DHT22;35103;47.952;-1.502;2022-08-19T13:45:43;22.60;79.30
49253;DHT22;35103;47.952;-1.502;2022-08-19T13:48:09;22.60;79.10
49253;DHT22;35103;47.952;-1.502;2022-08-19T13:50:39;22.40;79.00
49253;DHT22;35103;47.952;-1.502;2022-08-19T13:53:05;22.30;79.70
49253;DHT22;35103;47.952;-1.502;2022-08-19T13:55:42;22.40;79.50
49253;DHT22;35103;47.952;-1.502;2022-08-19T13:58:09;22.40;79.10
49253;DHT22;35103;47.952;-1.502;2022-08-19T14:00:39;22.30;78.60
49253;DHT22;35103;47.952;-1.502;2022-08-19T14:03:04;22.30;79.30
49253;DHT22;35103;47.952;-1.502;2022-08-19T14:05:31;22.20;79.20
49253;DHT22;35103;47.952;-1.502;2022-08-19T14:07:57;22.00;79.40
49253;DHT22;35103;47.952;-1.502;2022-08-19T14:10:26;22.00;79.80
49253;DHT22;35103;47.952;-1.502;2022-08-19T14:12:54;22.10;80.20
49253;DHT22;35103;47.952;-1.502;2022-08-19T14:15:21;22.10;79.90
49253;DHT22;35103;47.952;-1.502;2022-08-19T14:17:46;22.10;80.00
49253;DHT22;35103;47.952;-1.502;2022-08-19T14:20:13;22.10;80.30
49253;DHT22;35103;47.952;-1.502;2022-08-19T14:22:41;22.00;80.10
49253;DHT22;35103;47.952;-1.502;2022-08-19T14:25:10;22.00;80.30
49253;DHT22;35103;47.952;-1.502;2022-08-19T14:27:39;22.10;80.30
49253;DHT22;35103;47.952;-1.502;2022-08-19T14:30:07;22.10;80.60
49253;DHT22;35103;47.952;-1.502;2022-08-19T14:32:35;22.20;80.60
49253;DHT22;35103;47.952;-1.502;2022-08-19T14:35:01;22.20;80.50
49253;DHT22;35103;47.952;-1.502;2022-08-19T14:37:27;22.20;80.40
49253;DHT22;35103;47.952;-1.502;2022-08-19T14:39:52;22.20;80.50
49253;DHT22;35103;47.952;-1.502;2022-08-19T14:42:18;22.20;80.40
49253;DHT22;35103;47.952;-1.502;2022-08-19T14:44:43;22.30;80.60
49253;DHT22;35103;47.952;-1.502;2022-08-19T14:47:09;22.30;80.60
49253;DHT22;35103;47.952;-1.502;2022-08-19T14:49:35;22.30;80.50
49253;DHT22;35103;47.952;-1.502;2022-08-19T14:52:03;22.30;80.40
49253;DHT22;35103;47.952;-1.502;2022-08-19T14:54:31;22.30;80.40
49253;DHT22;35103;47.952;-1.502;2022-08-19T14:56:57;22.30;80.20
49253;DHT22;35103;47.952;-1.502;2022-08-19T14:59:23;22.30;80.40
49253;DHT22;35103;47.952;-1.502;2022-08-19T15:01:51;22.30;80.60
49253;DHT22;35103;47.952;-1.502;2022-08-19T15:04:20;22.30;80.70
49253;DHT22;35103;47.952;-1.502;2022-08-19T15:06:45;22.30;80.50
49253;DHT22;35103;47.952;-1.502;2022-08-19T15:09:11;22.30;80.60
49253;DHT22;35103;47.952;-1.502;2022-08-19T15:11:37;22.30;80.40
49253;DHT22;35103;47.952;-1.502;2022-08-19T15:14:02;22.30;80.50
49253;DHT22;35103;47.952;-1.502;2022-08-19T15:16:28;22.30;80.50
49253;DHT22;35103;47.952;-1.502;2022-08-19T15:18:56;22.30;80.70
49253;DHT22;35103;47.952;-1.502;2022-08-19T15:21:24;22.20;80.40
49253;DHT22;35103;47.952;-1.502;2022-08-19T15:23:50;22.30;81.30
49253;DHT22;35103;47.952;-1.502;2022-08-19T15:26:20;22.70;81.20